createdAt,value
2023-01-23T00:12:35.364Z,100313.55
2023-01-23T00:15:48.309Z,100315.25
2023-01-23T00:19:00.928Z,100318.67
2023-01-23T00:22:15.337Z,100327.59
2023-01-23T00:25:27.382Z,100340.92
2023-01-23T00:28:39.544Z,100349.58
2023-01-23T00:31:52.897Z,100346.85
2023-01-23T00:35:05.062Z,100349.58
2023-01-23T00:38:17.174Z,100349.58
2023-01-23T00:41:31.663Z,100354.81
2023-01-23T00:44:43.777Z,100356.70
2023-01-23T00:47:58.172Z,100354.81
2023-01-23T00:51:10.625Z,100354.00
2023-01-23T00:54:26.074Z,100365.28
2023-01-23T00:57:38.017Z,100357.51
2023-01-23T01:00:50.069Z,100367.03
2023-01-23T01:04:03.076Z,100368.71
2023-01-23T01:07:25.949Z,100380.05
2023-01-23T01:10:38.548Z,100373.02
2023-01-23T01:16:55.986Z,100372.19
2023-01-23T01:20:09.668Z,100374.76
2023-01-23T01:23:22.587Z,100379.13
2023-01-23T01:26:36.640Z,100385.41
2023-01-23T01:29:48.710Z,100376.62
2023-01-23T01:33:01.912Z,100388.89
2023-01-23T01:36:18.604Z,100387.09
2023-01-23T01:39:32.008Z,100384.42
2023-01-23T01:42:49.803Z,100381.88
2023-01-23T01:46:34.693Z,100376.75
2023-01-23T01:49:47.686Z,100365.17
2023-01-23T01:52:59.721Z,100366.72
2023-01-23T01:56:15.766Z,100364.80
2023-01-23T01:59:30.581Z,100374.33
2023-01-23T02:02:47.463Z,100378.63
2023-01-23T02:06:00.678Z,100376.08
2023-01-23T02:09:19.994Z,100383.94
2023-01-23T02:12:35.153Z,100382.13
2023-01-23T02:15:48.675Z,100378.56
2023-01-23T02:19:05.598Z,100376.81
2023-01-23T02:22:32.235Z,100383.86
2023-01-23T02:25:53.438Z,100381.19
2023-01-23T02:29:06.349Z,100390.79
2023-01-23T02:32:22.038Z,100382.23
2023-01-23T02:35:37.190Z,100385.85
2023-01-23T02:38:59.985Z,100383.18
2023-01-23T02:42:13.362Z,100385.93
2023-01-23T02:45:27.646Z,100391.16
2023-01-23T02:48:40.448Z,100392.77
2023-01-23T02:51:53.127Z,100397.95
2023-01-23T02:55:05.138Z,100394.41
2023-01-23T02:58:28.125Z,100403.36
2023-01-23T03:01:40.575Z,100403.44
2023-01-23T03:04:53.645Z,100408.49
2023-01-23T03:08:05.759Z,100404.05
2023-01-23T03:11:18.412Z,100413.73
2023-01-23T03:14:32.470Z,100410.41
2023-01-23T03:17:44.633Z,100413.97
2023-01-23T03:20:59.643Z,100418.44
2023-01-23T03:24:15.172Z,100422.92
2023-01-23T03:27:27.155Z,100417.70
2023-01-23T03:30:40.885Z,100426.55
2023-01-23T03:37:21.252Z,100416.53
2023-01-23T03:40:49.882Z,100420.95
2023-01-23T03:44:03.244Z,100424.20
2023-01-23T03:47:16.557Z,100438.21
2023-01-23T03:50:28.650Z,100440.09
2023-01-23T03:53:42.429Z,100439.33
2023-01-23T03:56:55.840Z,100436.77
2023-01-23T04:00:16.914Z,100440.20
2023-01-23T04:03:34.008Z,100444.33
2023-01-23T04:14:19.982Z,100461.03
2023-01-23T04:21:13.759Z,100456.59
2023-01-23T04:24:26.109Z,100457.47
2023-01-23T05:20:03.858Z,100476.56
2023-01-23T05:30:47.347Z,100477.60
2023-01-23T05:34:04.322Z,100475.91
2023-01-23T05:41:16.154Z,100492.27
2023-01-23T05:48:27.945Z,100498.42
2023-01-23T05:51:40.966Z,100516.92
2023-01-23T06:18:11.824Z,100541.84
2023-01-23T06:56:39.885Z,100569.61
2023-01-23T07:19:15.376Z,100571.22
2023-01-23T07:22:39.923Z,100575.54
2023-01-23T07:25:52.265Z,100570.41
2023-01-23T07:29:05.087Z,100582.51
2023-01-23T07:47:11.540Z,100598.05
2023-01-23T07:50:23.841Z,100609.30
2023-01-23T07:53:36.227Z,100604.00
2023-01-23T07:56:48.471Z,100616.22
2023-01-23T08:00:00.777Z,100620.47
2023-01-23T08:03:13.073Z,100624.84
2023-01-23T08:06:25.194Z,100627.51
2023-01-23T08:09:37.400Z,100625.60
2023-01-23T08:12:49.718Z,100620.31
2023-01-23T08:16:14.656Z,100629.20
2023-01-23T08:19:28.388Z,100624.02
2023-01-23T08:30:04.064Z,100624.61
2023-01-23T08:36:56.485Z,100638.48
2023-01-23T08:40:09.564Z,100634.97
2023-01-23T08:51:29.100Z,100648.02
2023-01-23T08:54:41.512Z,100649.55
2023-01-23T08:57:54.229Z,100642.50
2023-01-23T09:05:06.180Z,100633.65
2023-01-23T09:08:18.358Z,100636.38
2023-01-23T09:11:30.611Z,100630.21
2023-01-23T09:14:42.571Z,100636.27
2023-01-23T09:17:54.766Z,100627.57
2023-01-23T09:21:16.940Z,100619.55
2023-01-23T09:24:29.032Z,100615.23
2023-01-23T09:27:41.257Z,100619.66
2023-01-23T09:30:53.538Z,100614.31
2023-01-23T09:34:07.946Z,100620.41
2023-01-23T09:37:20.715Z,100615.94
2023-01-23T09:44:40.427Z,100610.33
2023-01-23T09:48:14.306Z,100617.20
2023-01-23T09:54:48.176Z,100618.82
2023-01-23T09:58:03.772Z,100619.81
2023-01-23T10:09:22.754Z,100621.10
2023-01-23T10:13:10.001Z,100612.31
2023-01-23T10:16:49.381Z,100619.92
2023-01-23T10:20:30.511Z,100624.17
2023-01-23T10:23:59.522Z,100616.06
2023-01-23T10:27:22.811Z,100623.80
2023-01-23T10:30:42.199Z,100622.83
2023-01-23T10:34:03.467Z,100618.45
2023-01-23T10:37:22.979Z,100622.88
2023-01-23T10:40:49.740Z,100620.98
2023-01-23T10:44:05.098Z,100619.39
2023-01-23T10:47:31.967Z,100614.82
2023-01-23T10:50:45.762Z,100617.31
2023-01-23T10:54:31.342Z,100603.44
2023-01-23T10:57:54.406Z,100604.22
2023-01-23T11:01:07.622Z,100594.65
2023-01-23T11:04:26.641Z,100594.53
2023-01-23T11:07:42.527Z,100586.59
2023-01-23T11:10:54.785Z,100586.47
2023-01-23T11:14:22.921Z,100579.33
2023-01-23T11:17:39.925Z,100581.03
2023-01-23T11:21:00.857Z,100580.14
2023-01-23T11:24:38.622Z,100581.09
2023-01-23T11:27:40.800Z,100570.53
2023-01-23T11:31:11.920Z,100566.09
2023-01-23T11:34:15.994Z,100568.09
2023-01-23T11:37:28.877Z,100571.55
2023-01-23T11:40:41.438Z,100570.45
2023-01-23T11:43:53.791Z,100575.70
2023-01-23T11:47:55.308Z,100570.53
2023-01-23T11:51:14.057Z,100568.92
2023-01-23T11:54:51.972Z,100566.91
2023-01-23T11:58:14.848Z,100567.08
2023-01-23T12:01:33.630Z,100574.08
2023-01-23T12:05:21.012Z,100565.28
2023-01-23T12:08:41.003Z,100553.84
2023-01-23T12:12:07.862Z,100558.00
2023-01-23T12:15:30.317Z,100565.95
2023-01-23T12:18:48.560Z,100562.44
2023-01-23T12:22:11.212Z,100560.64
2023-01-23T12:25:34.163Z,100566.81
2023-01-23T12:29:22.340Z,100563.25
2023-01-23T12:32:56.124Z,100563.27
2023-01-23T12:36:21.128Z,100562.44
2023-01-23T12:39:51.875Z,100558.03
2023-01-23T12:43:11.477Z,100558.03
2023-01-23T12:46:29.132Z,100560.64
2023-01-23T12:49:46.982Z,100563.25
2023-01-23T12:53:04.090Z,100567.56
2023-01-23T12:56:18.242Z,100570.13
2023-01-23T12:59:36.769Z,100566.70
2023-01-23T13:02:54.449Z,100571.06
2023-01-23T13:06:20.960Z,100566.81
2023-01-23T13:09:56.503Z,100560.63
2023-01-23T13:13:08.614Z,100560.63
2023-01-23T13:16:23.550Z,100560.64
2023-01-23T13:23:42.893Z,100573.88
2023-01-23T13:26:54.996Z,100576.50
2023-01-23T13:30:08.952Z,100581.03
2023-01-23T13:34:06.832Z,100576.59
2023-01-23T13:37:53.462Z,100580.95
2023-01-23T13:41:38.984Z,100586.27
2023-01-23T13:45:30.034Z,100584.46
2023-01-23T14:23:59.804Z,100597.95
2023-01-23T14:27:44.465Z,100595.34
2023-01-23T14:31:03.867Z,100604.02
2023-01-23T14:34:23.716Z,100605.76
2023-01-23T14:37:38.415Z,100607.65
2023-01-23T14:40:51.526Z,100604.22
2023-01-23T14:44:06.048Z,100597.22
2023-01-23T14:47:25.830Z,100594.70
2023-01-23T14:50:38.548Z,100596.52
2023-01-23T14:54:04.310Z,100599.14
2023-01-23T14:57:21.089Z,100599.39
2023-01-23T15:00:34.535Z,100608.06
2023-01-23T15:03:51.295Z,100594.95
2023-01-23T15:07:06.165Z,100601.89
2023-01-23T15:10:24.880Z,100605.44
2023-01-23T15:13:47.717Z,100584.79
2023-01-23T15:17:51.594Z,100602.84
2023-01-23T15:24:24.360Z,100609.95
2023-01-23T15:27:41.276Z,100609.88
2023-01-23T15:30:55.250Z,100613.44
2023-01-23T15:34:35.683Z,100609.95
2023-01-23T15:50:22.239Z,100616.25
2023-01-23T15:57:54.452Z,100617.93
2023-01-23T16:01:06.850Z,100616.20
2023-01-23T16:04:20.607Z,100625.80
2023-01-23T16:07:37.931Z,100629.30
2023-01-23T16:10:50.606Z,100630.30
2023-01-23T16:14:02.763Z,100630.30
2023-01-23T16:17:16.965Z,100636.36
2023-01-23T16:20:34.574Z,100644.28
2023-01-23T16:23:47.927Z,100637.28
2023-01-23T16:27:02.381Z,100635.55
2023-01-23T16:30:23.996Z,100643.52
2023-01-23T16:33:36.416Z,100647.84
2023-01-23T16:36:48.754Z,100648.77
2023-01-23T16:40:00.881Z,100649.70
2023-01-23T16:43:12.974Z,100651.45
2023-01-23T16:46:27.226Z,100647.14
2023-01-23T16:57:47.629Z,100648.84
2023-01-23T17:01:05.280Z,100643.47
2023-01-23T22:15:03.658Z,100703.17
2023-01-23T22:46:36.050Z,100717.10
2023-01-23T22:49:48.229Z,100713.66
2023-01-23T23:13:58.232Z,100708.27
2023-01-23T23:41:47.163Z,100711.86
